Terminal Aerodrome Forecast
Issued by NWS

Home | Current Version | Previous Version | Text Only | Print | Product List | Glossary On
Versions: 1 2 3 4 5 6 7 8 9 10 11 12 13 14 15 16 17 18 19 20 21 22 23 24 25 26 27 28
000
FTUS44 KFWD 051121
TAFGKY
TAF
KGKY 051121Z 0512/0612 19011KT P6SM SCT014 SCT300
      TEMPO 0513/0515 BKN020
     FM051500 18015KT P6SM SCT035 BKN250
     FM061100 18015KT P6SM BKN015=

USA.gov is the U.S. government's official web portal to all federal, state and local government web resources and services.